Time;durP1;ratioP1;P1;durP2;ratioP2;P2;SDS_P1;SDS_P2;PMS_P1;PMS_P2;Temp;Humidity;BMP_temperature;BMP_pressure;BME280_temperature;BME280_humidity;BME280_pressure;Samples;Min_cycle;Max_cycle;Signal;HPM_P1;HPM_P2
2022/09/15 00:01:19;;;;;;;11.10;5.10;;;23.50;75.80;;;;;;221126;1265;22525;-48
2022/09/15 00:06:23;;;;;;;8.10;5.10;;;23.40;75.60;;;;;;221093;1265;24298;-49
2022/09/15 00:11:30;;;;;;;8.80;5.50;;;23.50;75.50;;;;;;220960;1265;24065;-48
2022/09/15 00:16:34;;;;;;;8.20;5.10;;;23.50;75.00;;;;;;221201;1265;22521;-49
2022/09/15 00:21:39;;;;;;;8.30;4.40;;;23.40;74.80;;;;;;221092;1265;22545;-55
2022/09/15 00:26:46;;;;;;;7.90;5.00;;;23.40;75.40;;;;;;220820;1265;22563;-47
2022/09/15 00:31:50;;;;;;;8.10;5.00;;;23.40;74.70;;;;;;220626;1265;26540;-52
2022/09/15 00:36:54;;;;;;;8.40;4.20;;;23.40;75.30;;;;;;221054;1265;24388;-48
2022/09/15 00:41:59;;;;;;;7.50;4.90;;;23.40;74.60;;;;;;220887;1265;25467;-48
2022/09/15 00:47:05;;;;;;;7.20;4.80;;;23.30;74.60;;;;;;220893;1265;22531;-49
2022/09/15 00:52:38;;;;;;;6.00;4.10;;;23.40;74.40;;;;;;220786;1265;24216;-49
2022/09/15 00:57:48;;;;;;;7.00;4.40;;;23.40;74.60;;;;;;223905;1265;22585;-47
2022/09/15 01:02:52;;;;;;;5.60;4.20;;;23.40;74.30;;;;;;222396;1265;22554;-47
2022/09/15 01:08:04;;;;;;;8.30;4.60;;;23.40;74.40;;;;;;220981;1265;22586;-48
2022/09/15 01:13:10;;;;;;;7.30;4.40;;;23.40;74.20;;;;;;220747;1265;22519;-47
2022/09/15 01:18:21;;;;;;;7.00;4.50;;;23.40;74.20;;;;;;219767;1265;1756870;-49
2022/09/15 01:23:45;;;;;;;;;;;23.40;73.90;;;;;;220964;1265;24249;-49
2022/09/15 01:29:16;;;;;;;6.40;4.40;;;23.40;74.20;;;;;;221005;1265;25312;-52
2022/09/15 01:34:20;;;;;;;8.80;4.20;;;23.40;74.20;;;;;;221008;1265;24350;-51
2022/09/15 01:39:38;;;;;;;6.80;4.60;;;23.30;74.10;;;;;;220786;1265;24079;-49
2022/09/15 01:44:55;;;;;;;5.80;4.30;;;23.40;74.40;;;;;;220841;1265;22551;-50
2022/09/15 01:50:07;;;;;;;6.90;4.30;;;23.30;74.00;;;;;;221176;1265;22559;-48
2022/09/15 01:55:24;;;;;;;6.20;4.40;;;23.40;74.00;;;;;;221193;1267;22537;-51
2022/09/15 02:00:40;;;;;;;5.70;3.80;;;23.30;74.20;;;;;;221253;1265;24315;-48
2022/09/15 02:06:01;;;;;;;6.90;3.80;;;23.30;73.90;;;;;;220885;1268;22543;-47
2022/09/15 02:11:16;;;;;;;6.00;4.10;;;23.30;73.90;;;;;;220682;1264;24111;-47
2022/09/15 02:16:24;;;;;;;6.20;4.30;;;23.30;73.90;;;;;;220978;1265;22544;-47
2022/09/15 02:21:43;;;;;;;6.50;4.30;;;23.30;73.80;;;;;;220823;1265;22534;-53
2022/09/15 02:26:48;;;;;;;5.70;4.00;;;23.30;73.80;;;;;;220865;1265;24204;-48
2022/09/15 02:32:01;;;;;;;4.30;3.60;;;23.30;73.80;;;;;;221062;1265;23007;-50
2022/09/15 02:37:20;;;;;;;4.80;3.80;;;23.30;73.80;;;;;;220555;1265;22542;-51
2022/09/15 02:42:30;;;;;;;6.50;3.90;;;23.30;73.70;;;;;;224939;1266;23045;-48
2022/09/15 02:47:33;;;;;;;5.10;3.70;;;23.30;73.70;;;;;;220804;1265;22541;-48
2022/09/15 02:52:37;;;;;;;6.70;3.80;;;23.30;73.50;;;;;;220870;1265;24209;-48
2022/09/15 02:57:43;;;;;;;5.00;3.70;;;23.30;73.50;;;;;;220461;1265;22608;-50
2022/09/15 03:02:54;;;;;;;6.40;3.70;;;23.30;73.70;;;;;;220958;1267;22616;-48
2022/09/15 03:07:58;;;;;;;4.90;3.50;;;23.30;73.40;;;;;;221341;1267;22671;-47
2022/09/15 03:13:02;;;;;;;4.90;3.60;;;23.30;73.50;;;;;;220846;1265;23938;-47
2022/09/15 03:18:08;;;;;;;5.10;3.40;;;23.30;73.50;;;;;;220906;1265;25356;-48
2022/09/15 03:23:11;;;;;;;4.00;3.60;;;23.30;73.40;;;;;;220866;1265;22538;-48
2022/09/15 03:28:15;;;;;;;6.20;3.80;;;23.30;73.40;;;;;;220666;1265;24201;-49
2022/09/15 03:33:20;;;;;;;5.70;4.20;;;23.30;73.40;;;;;;220631;1265;22617;-52
2022/09/15 03:38:25;;;;;;;4.70;3.40;;;23.20;73.30;;;;;;220429;1265;23019;-47
2022/09/15 03:43:30;;;;;;;7.10;4.00;;;23.20;73.50;;;;;;220772;1265;25544;-49
2022/09/15 03:48:39;;;;;;;5.10;4.00;;;23.20;73.30;;;;;;220798;1265;22541;-48
2022/09/15 03:53:43;;;;;;;5.10;3.70;;;23.20;73.40;;;;;;220906;1265;24115;-48
2022/09/15 03:58:47;;;;;;;5.70;3.60;;;23.20;73.60;;;;;;220724;1268;24195;-49
2022/09/15 04:03:51;;;;;;;4.00;3.30;;;23.20;73.60;;;;;;220614;1266;22595;-48
2022/09/15 04:08:54;;;;;;;4.80;3.60;;;23.20;73.20;;;;;;220803;1268;24453;-47
2022/09/15 04:13:58;;;;;;;4.60;3.70;;;23.20;73.30;;;;;;220831;1265;25221;-50
2022/09/15 04:19:02;;;;;;;4.80;3.60;;;23.20;73.20;;;;;;220535;1265;24346;-52
2022/09/15 04:24:06;;;;;;;4.80;3.70;;;23.20;73.10;;;;;;220855;1265;22610;-53
2022/09/15 04:29:13;;;;;;;5.40;3.80;;;23.20;73.40;;;;;;220713;1268;24794;-52
2022/09/15 04:34:16;;;;;;;4.30;3.60;;;23.20;73.50;;;;;;220657;1268;22541;-50
2022/09/15 04:39:20;;;;;;;4.20;2.90;;;23.20;73.00;;;;;;220574;1266;22801;-52
2022/09/15 04:44:23;;;;;;;4.60;3.60;;;23.20;73.00;;;;;;220802;1265;22545;-49
2022/09/15 04:49:27;;;;;;;4.60;3.20;;;23.20;73.00;;;;;;220874;1265;24235;-47
2022/09/15 04:54:35;;;;;;;5.70;3.20;;;23.20;73.10;;;;;;221183;1265;22524;-46
2022/09/15 04:59:39;;;;;;;4.70;3.40;;;23.20;73.10;;;;;;221050;1265;25474;-47
2022/09/15 05:04:43;;;;;;;4.60;3.60;;;23.20;72.80;;;;;;220717;1265;24824;-53
2022/09/15 05:09:47;;;;;;;4.60;3.50;;;23.10;73.00;;;;;;220677;1265;24135;-49
2022/09/15 05:14:50;;;;;;;4.10;3.30;;;23.20;72.90;;;;;;221183;1265;25287;-47
2022/09/15 05:19:54;;;;;;;4.40;3.20;;;23.20;72.80;;;;;;220757;1265;22520;-48
2022/09/15 05:24:58;;;;;;;4.40;3.60;;;23.10;73.20;;;;;;220898;1265;22554;-48
2022/09/15 05:30:03;;;;;;;6.60;3.50;;;23.10;72.80;;;;;;221169;1265;25237;-50
2022/09/15 05:35:26;;;;;;;4.00;2.90;;;23.10;72.90;;;;;;221124;1265;22537;-48
2022/09/15 05:40:31;;;;;;;5.40;3.10;;;23.10;73.30;;;;;;221170;1265;26529;-47
2022/09/15 05:45:36;;;;;;;3.60;2.80;;;23.10;73.40;;;;;;221034;1265;24296;-55
2022/09/15 05:50:48;;;;;;;3.60;2.80;;;23.10;73.80;;;;;;220967;1265;22526;-58
2022/09/15 05:55:59;;;;;;;5.80;2.70;;;23.20;73.40;;;;;;220629;1266;22691;-55
2022/09/15 06:01:06;;;;;;;;;;;23.20;73.90;;;;;;220588;1265;22520;-55
2022/09/15 06:06:11;;;;;;;5.30;3.00;;;23.30;73.70;;;;;;221046;1265;24203;-55
2022/09/15 06:11:17;;;;;;;7.30;3.30;;;23.20;74.10;;;;;;220733;1265;22588;-54
2022/09/15 06:16:22;;;;;;;4.70;2.90;;;23.20;74.00;;;;;;220727;1265;24163;-54
2022/09/15 06:21:28;;;;;;;6.10;3.40;;;23.30;74.30;;;;;;220869;1265;25298;-55
2022/09/15 06:26:32;;;;;;;8.70;3.40;;;23.30;74.50;;;;;;220684;1265;25360;-52
2022/09/15 06:31:37;;;;;;;5.40;3.10;;;23.30;74.50;;;;;;220660;1265;22535;-55
2022/09/15 06:36:42;;;;;;;13.40;3.60;;;23.30;74.60;;;;;;228476;1264;22337;-55
2022/09/15 06:41:45;;;;;;;5.10;3.20;;;23.40;74.40;;;;;;222845;1265;27815;-54
2022/09/15 06:47:04;;;;;;;9.10;3.50;;;23.50;74.30;;;;;;220718;1265;22697;-51
2022/09/15 06:52:08;;;;;;;5.00;2.80;;;23.50;74.10;;;;;;220891;1265;24890;-52
2022/09/15 06:57:12;;;;;;;8.30;3.80;;;23.50;74.00;;;;;;221147;1265;24283;-49
2022/09/15 07:02:15;;;;;;;8.90;3.10;;;23.50;74.20;;;;;;220742;1265;25008;-52
2022/09/15 07:07:19;;;;;;;10.80;3.80;;;23.50;74.50;;;;;;220926;1265;24261;-51
2022/09/15 07:12:23;;;;;;;5.90;3.30;;;23.50;74.90;;;;;;221043;1265;24219;-54
2022/09/15 07:17:27;;;;;;;9.90;3.10;;;23.50;74.10;;;;;;220957;1265;22535;-52
2022/09/15 07:22:31;;;;;;;7.50;3.40;;;23.40;74.10;;;;;;220793;1265;22543;-50
2022/09/15 07:27:34;;;;;;;8.10;3.40;;;23.50;74.00;;;;;;220739;1266;26664;-54
2022/09/15 07:32:39;;;;;;;6.20;2.70;;;23.50;73.40;;;;;;220933;1265;22818;-54
2022/09/15 07:37:43;;;;;;;4.80;2.90;;;23.50;73.70;;;;;;221047;1265;24204;-50
2022/09/15 07:42:47;;;;;;;5.50;2.90;;;23.50;73.50;;;;;;221189;1265;24214;-53
2022/09/15 07:47:51;;;;;;;6.20;3.10;;;23.50;73.50;;;;;;221041;1265;22547;-53
2022/09/15 07:52:55;;;;;;;9.60;3.10;;;23.60;73.30;;;;;;220965;1265;23249;-51
2022/09/15 07:58:00;;;;;;;5.10;2.90;;;23.60;73.10;;;;;;220859;1268;22541;-55
2022/09/15 08:03:03;;;;;;;3.60;2.80;;;23.60;71.90;;;;;;221032;1265;24131;-53
2022/09/15 08:08:07;;;;;;;4.80;3.00;;;23.60;71.80;;;;;;221089;1265;23128;-53
2022/09/15 08:13:11;;;;;;;8.30;3.10;;;23.60;71.70;;;;;;220954;1265;25237;-51
2022/09/15 08:18:16;;;;;;;6.50;3.10;;;23.60;71.10;;;;;;221606;1265;24398;-55
2022/09/15 08:23:22;;;;;;;8.30;3.00;;;23.70;70.50;;;;;;221460;1265;25371;-53
2022/09/15 08:28:25;;;;;;;6.00;2.90;;;23.70;70.20;;;;;;221071;1265;24286;-51
2022/09/15 08:33:29;;;;;;;5.00;2.70;;;23.80;70.30;;;;;;221051;1265;22547;-54
2022/09/15 08:38:33;;;;;;;5.10;2.80;;;23.80;68.80;;;;;;221166;1265;22528;-53
2022/09/15 08:43:43;;;;;;;5.40;2.80;;;23.80;69.30;;;;;;220934;1265;22535;-51
2022/09/15 08:49:16;;;;;;;4.80;3.00;;;23.80;69.10;;;;;;221229;1265;25285;-53
2022/09/15 08:54:38;;;;;;;5.50;3.10;;;23.80;69.00;;;;;;221435;1265;24514;-55
2022/09/15 08:59:42;;;;;;;5.10;2.50;;;23.80;68.80;;;;;;221322;1265;24382;-54
2022/09/15 09:05:00;;;;;;;5.40;2.70;;;23.90;67.50;;;;;;221218;1265;22544;-51
2022/09/15 09:10:20;;;;;;;6.10;3.00;;;23.90;67.30;;;;;;220888;1265;22522;-54
2022/09/15 09:15:37;;;;;;;5.60;3.10;;;23.90;69.50;;;;;;220636;1265;24374;-52
2022/09/15 09:20:56;;;;;;;7.40;3.10;;;23.90;69.10;;;;;;220989;1265;25244;-55
2022/09/15 09:26:01;;;;;;;6.00;2.60;;;23.90;69.10;;;;;;220957;1265;24267;-53
2022/09/15 09:31:06;;;;;;;22.40;13.40;;;23.90;68.40;;;;;;220932;1265;23912;-53
2022/09/15 09:36:11;;;;;;;14.50;7.90;;;24.00;68.40;;;;;;221327;1265;22550;-55
2022/09/15 09:41:24;;;;;;;15.90;6.10;;;24.00;68.10;;;;;;223511;1265;25379;-53
2022/09/15 09:46:28;;;;;;;8.00;4.10;;;24.00;67.20;;;;;;221107;1265;22907;-54
2022/09/15 09:51:39;;;;;;;11.70;4.00;;;24.00;67.30;;;;;;221418;1265;22992;-52
2022/09/15 09:56:43;;;;;;;10.40;4.50;;;23.90;66.00;;;;;;221474;1265;23089;-53
2022/09/15 10:02:11;;;;;;;9.10;3.40;;;23.90;67.20;;;;;;220852;1265;23226;-52
2022/09/15 10:07:19;;;;;;;7.80;3.20;;;24.00;67.30;;;;;;220839;1265;22532;-54
2022/09/15 10:12:40;;;;;;;8.00;3.20;;;24.10;65.60;;;;;;221518;1265;22544;-53
2022/09/15 10:17:49;;;;;;;5.70;2.80;;;24.10;65.70;;;;;;221535;1265;25480;-51
2022/09/15 10:23:16;;;;;;;9.60;2.90;;;24.10;65.80;;;;;;221002;1265;22693;-51
2022/09/15 10:28:22;;;;;;;5.70;2.90;;;24.10;64.20;;;;;;221361;1265;25601;-56
2022/09/15 10:33:28;;;;;;;8.40;3.70;;;24.10;65.70;;;;;;221032;1265;25236;-54
2022/09/15 10:38:40;;;;;;;5.70;2.80;;;24.10;65.70;;;;;;221003;1265;25247;-55
2022/09/15 10:44:12;;;;;;;4.70;2.60;;;24.00;65.80;;;;;;221376;1265;25572;-53
2022/09/15 10:49:37;;;;;;;6.90;2.80;;;24.00;66.20;;;;;;221049;1265;25293;-54
2022/09/15 10:54:59;;;;;;;3.80;2.60;;;23.90;66.30;;;;;;221200;1265;24356;-52
2022/09/15 11:00:07;;;;;;;5.80;3.00;;;23.90;66.60;;;;;;221265;1265;25224;-53
2022/09/15 11:05:38;;;;;;;6.10;2.70;;;23.80;66.50;;;;;;220941;1265;24245;-52
2022/09/15 11:10:49;;;;;;;4.70;2.70;;;23.80;66.50;;;;;;220796;1265;22637;-53
2022/09/15 11:15:58;;;;;;;4.80;2.30;;;23.90;65.90;;;;;;221198;1265;25269;-55
2022/09/15 11:21:37;;;;;;;4.10;2.30;;;23.90;65.90;;;;;;220505;1265;23698;-54
2022/09/15 11:26:46;;;;;;;5.30;2.40;;;23.90;65.40;;;;;;220866;1265;24405;-52
2022/09/15 11:31:56;;;;;;;5.40;2.50;;;23.90;65.40;;;;;;220914;1265;22627;-53
2022/09/15 11:37:40;;;;;;;5.20;2.40;;;23.90;65.50;;;;;;220836;1265;25253;-54
2022/09/15 11:42:53;;;;;;;8.90;2.70;;;23.90;65.40;;;;;;220667;1265;22528;-53
2022/09/15 11:48:11;;;;;;;6.80;2.90;;;23.90;64.50;;;;;;220458;1265;22564;-54
2022/09/15 11:53:43;;;;;;;5.00;2.80;;;23.90;65.50;;;;;;220589;1265;22588;-52
2022/09/15 11:59:12;;;;;;;4.40;2.40;;;23.90;65.30;;;;;;221254;1265;24283;-53
2022/09/15 12:04:22;;;;;;;6.20;2.40;;;23.90;65.10;;;;;;220695;1265;23852;-50
2022/09/15 12:09:28;;;;;;;5.40;2.50;;;23.90;64.50;;;;;;220554;1265;22537;-52
2022/09/15 12:14:36;;;;;;;4.40;2.50;;;23.90;64.00;;;;;;221045;1268;22642;-52
2022/09/15 12:19:51;;;;;;;5.60;2.40;;;24.00;63.90;;;;;;221184;1265;23144;-54
2022/09/15 12:25:11;;;;;;;3.60;2.30;;;23.90;64.50;;;;;;220911;1265;25302;-53
2022/09/15 12:30:39;;;;;;;3.40;2.20;;;23.90;64.60;;;;;;220704;1265;22706;-54
2022/09/15 12:35:43;;;;;;;5.00;2.40;;;23.90;63.90;;;;;;221023;1265;22688;-54
2022/09/15 12:40:57;;;;;;;4.60;1.90;;;23.90;64.50;;;;;;220945;1265;24252;-50
2022/09/15 12:46:03;;;;;;;5.40;3.00;;;23.80;64.80;;;;;;221020;1265;24377;-55
2022/09/15 12:51:09;;;;;;;4.90;2.70;;;23.80;64.90;;;;;;220919;1265;25308;-54
2022/09/15 12:56:35;;;;;;;4.10;2.30;;;23.80;65.10;;;;;;220362;1265;22600;-55
2022/09/15 13:01:49;;;;;;;4.70;2.40;;;23.80;64.70;;;;;;220866;1265;22535;-54
2022/09/15 13:07:29;;;;;;;5.10;2.50;;;23.80;64.60;;;;;;220978;1265;22802;-56
2022/09/15 13:12:39;;;;;;;5.80;2.30;;;23.80;64.60;;;;;;221075;1265;25323;-51
2022/09/15 13:17:45;;;;;;;4.60;2.20;;;23.80;64.80;;;;;;218753;1265;2900148;-54
2022/09/15 13:22:55;;;;;;;5.00;2.30;;;23.70;64.40;;;;;;221004;1265;24738;-54
2022/09/15 13:28:01;;;;;;;5.00;2.40;;;23.70;63.90;;;;;;220877;1265;22727;-54
2022/09/15 13:33:14;;;;;;;4.30;2.60;;;23.70;64.60;;;;;;220595;1265;25290;-52
2022/09/15 13:38:33;;;;;;;4.00;2.30;;;23.70;64.20;;;;;;220938;1265;24214;-52
2022/09/15 13:43:47;;;;;;;4.50;2.20;;;23.70;63.80;;;;;;221088;1265;24299;-54
2022/09/15 13:49:14;;;;;;;5.60;2.50;;;23.70;63.60;;;;;;220897;1265;24296;-54
2022/09/15 13:54:18;;;;;;;5.30;2.90;;;23.70;63.70;;;;;;220609;1265;24209;-54
2022/09/15 13:59:28;;;;;;;5.80;2.50;;;23.70;64.00;;;;;;220782;1265;22547;-52
2022/09/15 14:04:32;;;;;;;3.40;2.20;;;23.70;64.10;;;;;;220946;1265;22670;-52
2022/09/15 14:09:46;;;;;;;5.80;2.50;;;23.70;64.20;;;;;;220658;1265;22531;-52
2022/09/15 14:14:54;;;;;;;4.50;2.30;;;23.70;64.10;;;;;;220699;1265;22522;-53
2022/09/15 14:20:00;;;;;;;4.20;2.50;;;23.60;63.80;;;;;;220663;1267;22707;-54
2022/09/15 14:25:15;;;;;;;5.50;2.30;;;23.70;64.00;;;;;;221101;1265;24274;-53
2022/09/15 14:30:31;;;;;;;3.80;2.50;;;23.60;63.30;;;;;;221000;1265;22543;-53
2022/09/15 14:35:39;;;;;;;5.80;2.70;;;23.60;63.70;;;;;;220901;1265;22930;-53
2022/09/15 14:41:00;;;;;;;7.50;2.60;;;23.60;62.80;;;;;;220806;1265;22527;-52
2022/09/15 14:46:15;;;;;;;22.90;6.00;;;23.50;62.40;;;;;;220944;1265;25621;-54
2022/09/15 14:51:38;;;;;;;36.60;9.40;;;23.30;61.60;;;;;;220942;1264;22521;-55
2022/09/15 14:57:09;;;;;;;38.80;9.40;;;23.30;62.10;;;;;;220663;1265;24208;-54
2022/09/15 15:02:25;;;;;;;33.10;9.40;;;23.40;62.40;;;;;;220709;1265;22548;-53
2022/09/15 15:07:45;;;;;;;26.10;7.90;;;23.50;62.50;;;;;;220981;1265;22518;-51
2022/09/15 15:13:01;;;;;;;20.90;6.60;;;23.60;62.40;;;;;;221392;1264;25244;-54
2022/09/15 15:18:45;;;;;;;17.80;6.10;;;23.50;61.70;;;;;;220828;1265;22535;-52
2022/09/15 15:24:02;;;;;;;15.50;5.10;;;23.60;61.40;;;;;;220888;1264;22684;-50
2022/09/15 15:29:32;;;;;;;10.70;4.60;;;23.50;61.30;;;;;;220802;1264;22589;-48
2022/09/15 15:34:50;;;;;;;12.70;4.60;;;23.50;61.10;;;;;;220804;1265;24284;-53
2022/09/15 15:40:00;;;;;;;9.90;4.00;;;23.40;61.20;;;;;;220914;1265;22528;-54
2022/09/15 15:45:21;;;;;;;14.20;4.40;;;23.50;63.40;;;;;;221145;1265;22540;-52
2022/09/15 15:50:27;;;;;;;12.20;4.60;;;23.60;65.00;;;;;;220949;1265;24021;-49
2022/09/15 15:55:41;;;;;;;12.50;3.90;;;23.70;64.80;;;;;;220893;1265;22595;-52
2022/09/15 16:00:48;;;;;;;11.00;4.10;;;23.70;65.20;;;;;;221020;1264;22526;-57
2022/09/15 16:05:56;;;;;;;12.60;4.20;;;23.80;65.20;;;;;;220847;1264;24214;-57
2022/09/15 16:11:03;;;;;;;12.70;4.10;;;23.80;65.40;;;;;;220515;1264;23951;-55
2022/09/15 16:16:26;;;;;;;13.40;4.00;;;23.80;65.70;;;;;;220698;1265;25453;-54
2022/09/15 16:21:36;;;;;;;7.50;3.30;;;23.70;66.00;;;;;;220365;1265;25368;-54
2022/09/15 16:26:41;;;;;;;12.70;3.80;;;23.70;65.30;;;;;;221048;1265;25387;-54
2022/09/15 16:31:46;;;;;;;14.80;4.20;;;23.70;65.20;;;;;;221847;1265;22636;-51
2022/09/15 16:36:58;;;;;;;11.00;4.20;;;23.60;64.80;;;;;;221594;1265;22564;-52
2022/09/15 16:42:09;;;;;;;10.30;3.20;;;23.70;65.20;;;;;;222014;1265;22539;-56
2022/09/15 16:53:34;;;;;;;7.60;3.30;;;23.70;64.80;;;;;;211825;1296;949145;-54
2022/09/15 16:58:38;;;;;;;9.50;3.10;;;23.80;64.40;;;;;;214868;1296;22591;-57
2022/09/15 17:03:43;;;;;;;17.90;3.60;;;23.70;64.20;;;;;;214832;1296;22805;-58
2022/09/15 17:08:47;;;;;;;13.50;3.10;;;23.80;64.20;;;;;;214972;1296;22466;-55
2022/09/15 17:13:54;;;;;;;7.40;3.80;;;23.70;64.20;;;;;;215320;1296;22563;-53
2022/09/15 17:19:00;;;;;;;12.20;3.30;;;23.70;64.40;;;;;;214915;1296;22573;-55
2022/09/15 17:24:10;;;;;;;7.00;3.50;;;23.80;64.60;;;;;;215416;1296;25305;-53
2022/09/15 17:29:16;;;;;;;11.00;3.00;;;23.70;65.20;;;;;;215334;1296;24354;-51
2022/09/15 17:34:19;;;;;;;8.40;3.30;;;23.70;64.20;;;;;;215041;1296;22633;-50
2022/09/15 17:39:23;;;;;;;8.50;3.20;;;23.70;63.90;;;;;;214927;1296;25391;-49
2022/09/15 17:44:27;;;;;;;6.80;2.90;;;23.80;64.50;;;;;;214991;1296;23047;-53
2022/09/15 17:49:38;;;;;;;11.20;2.80;;;23.80;64.10;;;;;;215041;1296;24197;-50
2022/09/15 17:54:45;;;;;;;13.10;3.20;;;23.80;64.10;;;;;;214756;1297;25346;-53
2022/09/15 17:59:49;;;;;;;6.50;2.70;;;23.80;64.80;;;;;;215060;1297;24313;-51
2022/09/15 18:04:53;;;;;;;10.30;2.80;;;23.80;64.00;;;;;;214963;1297;22583;-52
2022/09/15 18:09:57;;;;;;;9.00;2.70;;;23.70;63.90;;;;;;214982;1296;26555;-55
2022/09/15 18:15:02;;;;;;;7.10;2.60;;;23.70;63.60;;;;;;214878;1299;24261;-52
2022/09/15 18:20:12;;;;;;;7.80;2.20;;;23.70;63.70;;;;;;214775;1299;23924;-51
2022/09/15 18:25:27;;;;;;;8.30;2.80;;;23.70;64.00;;;;;;214979;1299;25439;-50
2022/09/15 18:30:32;;;;;;;;;;;23.70;63.50;;;;;;214846;1299;25270;-51
2022/09/15 18:35:41;;;;;;;7.80;2.50;;;23.70;63.40;;;;;;214890;1296;24749;-52
2022/09/15 18:40:52;;;;;;;7.90;2.60;;;23.70;63.40;;;;;;214897;1296;24420;-53
2022/09/15 18:46:04;;;;;;;7.10;2.40;;;23.70;63.70;;;;;;214779;1299;22571;-54
2022/09/15 18:51:13;;;;;;;10.00;2.50;;;23.60;62.90;;;;;;214603;1299;25546;-53
2022/09/15 18:56:28;;;;;;;13.50;2.80;;;23.60;63.70;;;;;;214658;1299;25287;-52
2022/09/15 19:01:36;;;;;;;13.70;2.60;;;23.60;63.50;;;;;;215152;1296;22594;-53
2022/09/15 19:06:44;;;;;;;12.50;2.70;;;23.60;63.70;;;;;;214972;1299;24450;-55
2022/09/15 19:11:52;;;;;;;20.00;3.30;;;23.70;64.20;;;;;;214867;1299;22810;-52
2022/09/15 19:16:59;;;;;;;8.50;2.90;;;23.80;64.60;;;;;;214837;1297;23211;-51
2022/09/15 19:22:04;;;;;;;7.50;2.60;;;23.80;65.40;;;;;;215189;1297;22567;-53
2022/09/15 19:27:08;;;;;;;7.30;2.60;;;23.80;65.50;;;;;;214925;1299;22727;-53
2022/09/15 19:32:19;;;;;;;15.70;2.70;;;23.70;65.90;;;;;;214883;1297;25159;-55
2022/09/15 19:37:31;;;;;;;14.00;2.40;;;23.80;66.60;;;;;;215034;1300;22784;-52
2022/09/15 19:42:42;;;;;;;9.60;2.80;;;23.80;66.60;;;;;;214895;1296;25366;-49
2022/09/15 19:47:48;;;;;;;16.80;3.10;;;23.80;66.60;;;;;;214887;1299;24386;-50
2022/09/15 19:52:54;;;;;;;6.90;2.50;;;23.70;66.70;;;;;;214807;1297;24254;-51
2022/09/15 19:58:21;;;;;;;14.90;2.60;;;23.70;66.90;;;;;;215538;1296;24463;-49
2022/09/15 20:03:39;;;;;;;10.10;2.50;;;23.70;66.70;;;;;;215122;1296;24331;-47
2022/09/15 20:08:45;;;;;;;7.10;2.80;;;23.70;66.70;;;;;;215108;1296;22621;-50
2022/09/15 20:13:54;;;;;;;8.60;2.40;;;23.60;66.70;;;;;;215065;1296;24391;-49
2022/09/15 20:19:05;;;;;;;9.80;2.70;;;23.60;66.80;;;;;;214648;1296;24439;-52
2022/09/15 20:24:09;;;;;;;;;;;23.60;66.90;;;;;;214816;1296;23947;-53
2022/09/15 20:29:19;;;;;;;8.40;2.30;;;23.60;67.10;;;;;;215032;1296;22657;-51
2022/09/15 20:34:27;;;;;;;5.60;2.30;;;23.60;66.80;;;;;;214977;1296;22587;-48
2022/09/15 20:39:33;;;;;;;9.50;2.60;;;23.60;66.90;;;;;;215044;1299;25517;-53
2022/09/15 20:44:45;;;;;;;8.00;2.30;;;23.50;66.80;;;;;;214759;1299;22743;-51
2022/09/15 20:49:53;;;;;;;10.00;2.80;;;23.50;67.00;;;;;;215004;1299;24266;-50
2022/09/15 20:55:30;;;;;;;6.60;2.70;;;23.60;69.80;;;;;;215242;1299;22566;-49
2022/09/15 21:00:46;;;;;;;7.30;2.50;;;23.60;70.10;;;;;;214807;1299;22716;-48
2022/09/15 21:06:08;;;;;;;6.20;2.40;;;23.60;69.50;;;;;;214875;1299;25440;-52
2022/09/15 21:11:13;;;;;;;4.80;2.40;;;23.60;69.80;;;;;;215030;1296;23043;-50
2022/09/15 21:16:20;;;;;;;7.80;2.60;;;23.60;69.60;;;;;;215147;1300;25361;-50
2022/09/15 21:21:29;;;;;;;5.10;2.60;;;23.60;69.90;;;;;;214993;1299;25420;-48
2022/09/15 21:32:14;;;;;;;9.20;2.40;;;23.60;69.80;;;;;;214919;1300;26838;-49
2022/09/15 21:37:26;;;;;;;5.30;2.10;;;23.60;69.60;;;;;;214604;1299;22639;-47
2022/09/15 21:42:33;;;;;;;5.30;2.10;;;23.60;69.70;;;;;;214783;1298;24319;-47
2022/09/15 21:47:37;;;;;;;4.60;2.40;;;23.60;69.60;;;;;;215179;1298;24352;-49
2022/09/15 21:52:41;;;;;;;6.00;1.90;;;23.60;69.50;;;;;;215104;1297;22702;-49
2022/09/15 21:57:45;;;;;;;3.70;1.50;;;23.60;69.20;;;;;;215095;1299;22660;-49
2022/09/15 22:02:51;;;;;;;5.00;2.20;;;23.60;68.80;;;;;;214817;1296;22564;-48
2022/09/15 22:07:56;;;;;;;8.70;2.50;;;23.60;69.30;;;;;;214680;1297;26647;-54
2022/09/15 22:13:08;;;;;;;4.50;2.10;;;23.70;69.50;;;;;;214820;1299;22608;-48
2022/09/15 22:18:12;;;;;;;8.20;2.20;;;23.70;70.40;;;;;;214966;1296;24304;-48
2022/09/15 22:23:16;;;;;;;8.30;2.40;;;23.60;70.30;;;;;;215135;1300;22570;-48
2022/09/15 22:28:22;;;;;;;6.30;2.30;;;23.60;70.40;;;;;;215112;1297;22709;-51
2022/09/15 22:33:29;;;;;;;5.20;1.70;;;23.60;70.30;;;;;;215134;1297;22599;-49
2022/09/15 22:38:35;;;;;;;8.00;2.60;;;23.50;70.00;;;;;;215300;1299;22584;-50
2022/09/15 22:43:46;;;;;;;6.70;2.30;;;23.50;70.10;;;;;;215137;1296;22570;-50
2022/09/15 22:48:50;;;;;;;5.40;2.00;;;23.50;70.00;;;;;;215059;1297;22598;-49
2022/09/15 22:53:55;;;;;;;4.70;2.10;;;23.50;70.10;;;;;;215326;1297;22645;-48
2022/09/15 22:59:03;;;;;;;8.80;2.20;;;23.40;70.10;;;;;;215257;1300;24349;-49
2022/09/15 23:04:08;;;;;;;6.50;2.20;;;23.50;70.10;;;;;;215005;1302;25429;-47
2022/09/15 23:09:14;;;;;;;5.20;1.90;;;23.40;70.20;;;;;;215208;1299;22567;-49
2022/09/15 23:14:20;;;;;;;6.80;2.50;;;23.40;69.90;;;;;;215264;1299;24408;-51
2022/09/15 23:19:27;;;;;;;5.80;2.10;;;23.40;69.90;;;;;;215222;1297;26555;-50
2022/09/15 23:24:32;;;;;;;5.90;2.10;;;23.40;70.30;;;;;;215036;1299;25478;-48
2022/09/15 23:29:38;;;;;;;6.00;1.90;;;23.30;70.20;;;;;;214755;1299;25613;-51
2022/09/15 23:34:43;;;;;;;3.40;2.10;;;23.30;70.10;;;;;;214828;1299;25394;-51
2022/09/15 23:39:46;;;;;;;5.40;2.10;;;23.30;70.40;;;;;;214973;1299;25290;-49
2022/09/15 23:44:50;;;;;;;4.00;1.90;;;23.30;69.80;;;;;;215033;1299;22578;-47
2022/09/15 23:49:53;;;;;;;4.80;2.00;;;23.30;69.80;;;;;;215029;1297;22567;-51
2022/09/15 23:55:01;;;;;;;5.90;1.70;;;23.30;69.80;;;;;;214908;1300;22608;-48
